Huachuca City, AZ (85616)

09:37 AM MST del 01 Febbraio 2015 (GMT -0700)
Lower Huachuca City | Change Station
CLOSE
Current Station
Stazione meteo personale
Location: Huachuca City, AZ
Altitudine: 4251 ft
Stazioni meteo nelle vicinanze
Avvisi attivi: Dense Fog Advisory

Alt. 4251 ft 31.64 °N, 110.34 °W | Updated 10 seconds ago

Coperto
Coperto
50.4 °F
Sembra 50.4 °F
N
1.1
Vento Variabile Vento da Nord
Gusts 3.1 mph

Oggi
Massima -- | Minima -- °F
--% Possibilità di precip.
Ieri
Massima -- | Minima -- °F
Precip. -- in
7:14 AM 5:55 PM
Gobba a ponente, 95% visible
Pressione 30.06 in
Visibilità 10.0 miglia
Nuvole Molto nuvoloso 3900 ft
Punto di rugiada 44 °F
Umidità 79%
Piovosità 0.00 in
Spessore del manto nevoso Non disponibile.
Raggi UV 1 fuori da 12
Polline .50 fuori da 12
Qualità dell'aria Non disponibile.
Flu Activity Non disponibile.
METAR KFHU 011556Z AUTO 16003KT 10SM BKN039 08/06 A3009 RMK AO2 SLP177 P0001 T00830056 $

More Conditions Fewer Conditions

Pressione 30.06 in
Visibilità 10.0 miglia
Nuvole Molto nuvoloso 3900 ft
Punto di rugiada 44 °F
Umidità 79%
Piovosità 0.00 in
Spessore del manto nevoso Non disponibile.
Raggi UV 1 fuori da 12
Polline .50 fuori da 12
Qualità dell'aria Non disponibile.
Flu Activity Non disponibile.
METAR KFHU 011556Z AUTO 16003KT 10SM BKN039 08/06 A3009 RMK AO2 SLP177 P0001 T00830056 $

More Conditions Fewer Conditions

10-Day Weather Forecast

Almanac

Astronomia

Feb. 01, 2015 Alba Tramonto
Ora attuale
Crepuscolo civile
Crepuscolo nautico
Crepuscolo astronomico
Luna
Estensione della luce visibile
Lunghezza del giorno
Tomorrow will be .
, % of the Moon is Illuminated

Gli estremi di oggi

State Highs State Lows

Community

WunderPhotos

Upload Photos

1,792,362 foto caricate!

WunderBlogs® & News

Nearby

Qualità dell'aria

  Qualità dell'aria Indice AQ Inquinante
Not available.

Profondità neve

Stazione Profondità Altitudine

Attività sismica

Città  Distanza Mag. Data & Ora
Minimo Magnitudo Mostrato è 2.5.

Temperature delle acque costiere

Località Temperatura

Stazioni meteo nelle vicinanze